Time;durP1;ratioP1;P1;durP2;ratioP2;P2;SDS_P1;SDS_P2;PMS_P1;PMS_P2;Temp;Humidity;BMP_temperature;BMP_pressure;BME280_temperature;BME280_humidity;BME280_pressure;Samples;Min_cycle;Max_cycle;Signal;HPM_P1;HPM_P2
2022/05/30 00:00:39;;;;;;;0.95;0.95;;;11.20;99.90;;;;;;4989835;28;20465;-75
2022/05/30 00:03:07;;;;;;;2.15;1.40;;;11.10;99.90;;;;;;4993545;28;20109;-75
2022/05/30 00:05:38;;;;;;;1.02;1.00;;;11.20;99.90;;;;;;4991323;28;20050;-76
2022/05/30 00:08:06;;;;;;;1.38;1.00;;;11.10;99.90;;;;;;5008239;28;20042;-81
2022/05/30 00:10:34;;;;;;;1.55;1.00;;;11.20;99.90;;;;;;4990224;28;20042;-80
2022/05/30 00:13:02;;;;;;;1.13;1.02;;;11.20;99.90;;;;;;5009441;28;20389;-81
2022/05/30 00:15:32;;;;;;;1.00;0.90;;;11.20;99.90;;;;;;5009984;28;20149;-80
2022/05/30 00:18:03;;;;;;;1.02;0.70;;;11.10;99.90;;;;;;4992337;28;20105;-80
2022/05/30 00:20:31;;;;;;;0.85;0.82;;;11.20;99.90;;;;;;4993211;28;20109;-76
2022/05/30 00:22:58;;;;;;;2.10;1.00;;;11.10;99.90;;;;;;5004315;28;20042;-76
2022/05/30 00:25:26;;;;;;;1.25;0.98;;;11.20;99.90;;;;;;4991187;28;20384;-80
2022/05/30 00:27:54;;;;;;;1.67;1.30;;;11.10;99.90;;;;;;4974906;28;20470;-80
2022/05/30 00:30:22;;;;;;;0.93;0.93;;;11.10;99.90;;;;;;4992745;28;20046;-80
2022/05/30 00:32:49;;;;;;;2.30;1.23;;;11.10;99.90;;;;;;4991289;28;20053;-79
2022/05/30 00:35:17;;;;;;;1.27;0.80;;;11.10;99.90;;;;;;4991925;28;20129;-81
2022/05/30 00:37:44;;;;;;;2.28;1.27;;;11.10;99.90;;;;;;4988251;28;20138;-78
2022/05/30 00:40:12;;;;;;;2.28;1.30;;;11.10;99.90;;;;;;5007187;28;20104;-79
2022/05/30 00:42:40;;;;;;;1.30;1.20;;;11.10;99.90;;;;;;4989278;28;20073;-80
2022/05/30 00:45:10;;;;;;;2.30;1.08;;;11.10;99.90;;;;;;5006640;28;20085;-80
2022/05/30 00:47:38;;;;;;;3.22;0.85;;;11.10;99.90;;;;;;4986984;28;20068;-79
2022/05/30 00:50:09;;;;;;;3.80;1.13;;;11.00;99.90;;;;;;4972079;28;20046;-81
2022/05/30 00:52:40;;;;;;;1.42;1.08;;;11.00;99.90;;;;;;4985913;28;20054;-80
2022/05/30 00:55:12;;;;;;;1.13;0.90;;;11.00;99.90;;;;;;5006443;28;20053;-81
2022/05/30 00:57:44;;;;;;;2.17;1.38;;;11.00;99.90;;;;;;4975129;28;20057;-80
2022/05/30 01:00:18;;;;;;;1.60;1.20;;;10.90;99.90;;;;;;4975063;28;20054;-80
2022/05/30 01:06:30;;;;;;;1.10;1.02;;;10.90;99.90;;;;;;4990369;28;20293;-79
2022/05/30 01:08:30;;;;;;;1.92;1.48;;;10.90;99.90;;;;;;5006961;28;20050;-82
2022/05/30 01:10:59;;;;;;;2.90;1.88;;;10.80;99.90;;;;;;4973326;28;20082;-82
2022/05/30 01:13:27;;;;;;;2.33;1.38;;;10.80;99.90;;;;;;5005934;28;20038;-82
2022/05/30 01:15:57;;;;;;;2.38;1.40;;;10.80;99.90;;;;;;4990740;28;20145;-80
2022/05/30 01:18:29;;;;;;;2.70;1.70;;;10.80;99.90;;;;;;4990741;28;20173;-80
2022/05/30 01:21:16;;;;;;;1.23;1.15;;;10.80;99.90;;;;;;4969987;28;20054;-81
2022/05/30 01:23:58;;;;;;;2.80;1.80;;;10.80;99.90;;;;;;5004989;28;20058;-80
2022/05/30 01:27:14;;;;;;;1.75;1.17;;;10.80;99.90;;;;;;4990870;28;20061;-80
2022/05/30 01:29:50;;;;;;;1.63;1.15;;;10.80;99.90;;;;;;4972703;28;20403;-80
2022/05/30 01:32:20;;;;;;;2.05;1.60;;;10.80;99.90;;;;;;4993409;28;20042;-75
2022/05/30 01:34:49;;;;;;;1.20;0.95;;;10.80;99.90;;;;;;4991488;28;20077;-75
2022/05/30 01:37:20;;;;;;;1.88;1.20;;;10.80;99.90;;;;;;4990470;28;20050;-80
2022/05/30 01:39:48;;;;;;;3.10;1.38;;;10.80;99.90;;;;;;4983835;28;20057;-80
2022/05/30 01:42:16;;;;;;;2.88;1.55;;;10.80;99.90;;;;;;4990059;28;20120;-74
2022/05/30 01:44:47;;;;;;;1.40;1.25;;;10.90;99.90;;;;;;4989690;28;20085;-74
2022/05/30 01:47:14;;;;;;;2.58;1.48;;;10.90;99.90;;;;;;4972254;28;20141;-74
2022/05/30 01:49:44;;;;;;;10.23;1.88;;;10.90;99.90;;;;;;5005603;28;20084;-74
2022/05/30 01:52:13;;;;;;;1.27;1.17;;;10.90;99.90;;;;;;4991812;28;20105;-74
2022/05/30 01:54:41;;;;;;;3.08;1.20;;;10.90;99.90;;;;;;4993016;28;20042;-74
2022/05/30 01:57:26;;;;;;;2.25;1.58;;;10.90;99.90;;;;;;4994289;28;20430;-74
2022/05/30 02:00:18;;;;;;;1.40;1.25;;;10.90;99.90;;;;;;4971975;28;20424;-75
2022/05/30 02:02:50;;;;;;;2.38;1.30;;;10.90;99.90;;;;;;4970054;28;20114;-74
2022/05/30 02:05:19;;;;;;;1.88;1.77;;;10.90;99.90;;;;;;4955217;28;20054;-74
2022/05/30 02:07:46;;;;;;;1.77;1.65;;;11.00;99.90;;;;;;4992824;28;20049;-75
2022/05/30 02:10:19;;;;;;;;;;;11.00;99.90;;;;;;4988792;28;20043;-78
2022/05/30 02:12:48;;;;;;;3.60;1.40;;;11.00;99.90;;;;;;4989301;28;19992;-79
2022/05/30 02:17:00;;;;;;;1.65;1.50;;;11.00;99.90;;;;;;4989119;28;20034;-75
2022/05/30 02:18:18;;;;;;;2.33;1.42;;;11.10;99.90;;;;;;4989228;28;20625;-75
2022/05/30 02:20:46;;;;;;;1.73;1.60;;;11.10;99.90;;;;;;4988096;28;20066;-75
2022/05/30 02:23:14;;;;;;;3.08;1.42;;;11.10;99.90;;;;;;4989213;28;20097;-75
2022/05/30 02:25:43;;;;;;;2.83;1.60;;;11.10;99.90;;;;;;4985428;28;20054;-75
2022/05/30 02:28:13;;;;;;;9.38;1.90;;;11.10;99.90;;;;;;5005362;28;20534;-76
2022/05/30 02:30:43;;;;;;;10.48;1.90;;;11.20;99.90;;;;;;4987972;28;20526;-75
2022/05/30 02:38:40;;;;;;;7.18;2.30;;;11.20;99.90;;;;;;4988228;28;20076;-80
2022/05/30 02:41:30;;;;;;;3.95;1.80;;;11.20;99.90;;;;;;4998286;28;20546;-81
2022/05/30 02:44:06;;;;;;;2.05;1.90;;;11.20;99.90;;;;;;4984686;28;20124;-81
2022/05/30 02:46:35;;;;;;;5.20;1.80;;;11.20;99.90;;;;;;4990450;28;20046;-81
2022/05/30 02:49:03;;;;;;;4.10;1.50;;;11.30;99.90;;;;;;4987595;28;20607;-80
2022/05/30 02:51:31;;;;;;;2.30;1.52;;;11.30;99.90;;;;;;4990103;28;20051;-79
2022/05/30 02:53:59;;;;;;;2.47;1.17;;;11.30;99.90;;;;;;5005575;28;20398;-76
2022/05/30 02:56:50;;;;;;;1.90;1.58;;;11.40;99.90;;;;;;4988557;28;20046;-75
2022/05/30 02:59:19;;;;;;;1.20;1.10;;;11.40;99.90;;;;;;4992366;28;20056;-75
2022/05/30 03:01:55;;;;;;;1.10;1.10;;;11.50;99.90;;;;;;4990147;28;20117;-75
2022/05/30 03:04:24;;;;;;;2.35;1.55;;;11.50;99.90;;;;;;5009759;28;20046;-78
2022/05/30 03:06:51;;;;;;;2.30;1.70;;;11.50;99.90;;;;;;4992924;28;20057;-78
2022/05/30 03:09:19;;;;;;;3.50;1.80;;;11.50;99.90;;;;;;4993186;28;20105;-79
2022/05/30 03:12:07;;;;;;;3.30;1.55;;;11.60;99.90;;;;;;4990885;28;20054;-79
2022/05/30 03:14:34;;;;;;;4.60;1.77;;;11.60;99.90;;;;;;4992346;28;20053;-79
2022/05/30 03:17:03;;;;;;;6.95;1.67;;;11.60;99.90;;;;;;4991759;28;20224;-80
2022/05/30 03:19:32;;;;;;;3.25;1.25;;;11.70;99.90;;;;;;4989945;28;20045;-78
2022/05/30 03:22:01;;;;;;;2.58;1.60;;;11.70;99.90;;;;;;4976723;28;20140;-75
2022/05/30 03:24:32;;;;;;;2.70;1.60;;;11.70;99.90;;;;;;4991512;28;20056;-75
2022/05/30 03:27:00;;;;;;;2.75;1.90;;;11.80;99.90;;;;;;4976156;28;20046;-74
2022/05/30 03:29:27;;;;;;;2.80;1.40;;;11.80;99.90;;;;;;4989594;28;20054;-75
2022/05/30 03:31:55;;;;;;;2.45;1.27;;;11.80;99.90;;;;;;4993958;28;20064;-75
2022/05/30 03:34:24;;;;;;;1.80;1.50;;;11.80;99.90;;;;;;4990796;28;20396;-75
2022/05/30 03:36:52;;;;;;;1.42;1.33;;;11.80;99.90;;;;;;4993053;28;20050;-80
2022/05/30 03:39:34;;;;;;;3.42;1.75;;;11.90;99.90;;;;;;4990858;28;20050;-75
2022/05/30 03:42:01;;;;;;;3.30;1.40;;;11.90;99.90;;;;;;5007771;28;20108;-75
2022/05/30 03:44:53;;;;;;;1.65;1.33;;;12.00;99.90;;;;;;4992241;28;20046;-74
2022/05/30 03:47:20;;;;;;;5.50;1.52;;;12.00;99.90;;;;;;4990495;28;20549;-75
2022/05/30 03:49:50;;;;;;;3.70;1.15;;;12.10;99.90;;;;;;4991413;28;20050;-76
2022/05/30 03:52:19;;;;;;;5.28;1.58;;;12.10;99.90;;;;;;4991077;28;20085;-75
2022/05/30 03:54:46;;;;;;;1.92;1.27;;;12.20;99.90;;;;;;4975287;28;20094;-75
2022/05/30 03:57:14;;;;;;;1.55;1.20;;;12.20;99.90;;;;;;4990669;28;20042;-76
2022/05/30 03:59:41;;;;;;;3.50;1.13;;;12.30;99.90;;;;;;4991797;28;20116;-74
2022/05/30 04:02:09;;;;;;;3.28;1.00;;;12.30;99.90;;;;;;4991486;28;20054;-76
2022/05/30 04:04:37;;;;;;;8.85;1.83;;;12.40;99.90;;;;;;5002452;28;20050;-77
2022/05/30 04:07:06;;;;;;;2.75;1.45;;;12.50;99.90;;;;;;4989339;28;20049;-75
2022/05/30 04:09:45;;;;;;;5.10;1.20;;;12.50;99.90;;;;;;4991437;28;20050;-75
2022/05/30 04:12:32;;;;;;;3.83;1.38;;;12.50;99.90;;;;;;4990398;28;20112;-76
2022/05/30 04:15:22;;;;;;;2.92;1.15;;;12.60;99.90;;;;;;4988355;28;20161;-76
2022/05/30 04:17:50;;;;;;;1.90;1.67;;;12.70;99.90;;;;;;4989029;28;20057;-76
2022/05/30 04:20:19;;;;;;;1.60;1.00;;;12.80;99.90;;;;;;4971076;28;20054;-77
2022/05/30 04:22:48;;;;;;;4.72;1.60;;;12.90;99.90;;;;;;4991681;28;20060;-81
2022/05/30 04:25:24;;;;;;;2.13;1.27;;;13.00;99.90;;;;;;4989940;28;20458;-82
2022/05/30 04:27:52;;;;;;;2.65;1.30;;;13.10;99.90;;;;;;4992989;28;20046;-76
2022/05/30 04:30:21;;;;;;;1.98;1.20;;;13.10;99.90;;;;;;4990335;28;20050;-76
2022/05/30 04:32:52;;;;;;;1.00;0.90;;;13.20;99.90;;;;;;4975313;28;20057;-76
2022/05/30 04:35:20;;;;;;;5.93;1.55;;;13.30;99.90;;;;;;4974174;28;20061;-80
2022/05/30 04:37:50;;;;;;;2.95;0.80;;;13.30;99.90;;;;;;5007402;28;20107;-80
2022/05/30 04:40:37;;;;;;;3.55;1.00;;;13.40;99.90;;;;;;4989611;28;20525;-75
2022/05/30 04:43:34;;;;;;;2.42;0.98;;;13.40;99.90;;;;;;4970219;28;20061;-81
2022/05/30 04:46:31;;;;;;;4.43;1.00;;;13.50;99.90;;;;;;4995345;28;20062;-83
2022/05/30 04:49:00;;;;;;;2.60;1.00;;;13.60;99.90;;;;;;4993113;28;20056;-75
2022/05/30 04:51:28;;;;;;;3.20;1.00;;;13.60;99.90;;;;;;4991209;28;20061;-75
2022/05/30 04:53:57;;;;;;;3.30;1.23;;;13.70;99.90;;;;;;4988612;28;20050;-76
2022/05/30 04:57:00;;;;;;;5.82;1.30;;;13.70;99.90;;;;;;4990291;28;20097;-77
2022/05/30 04:59:29;;;;;;;4.10;1.52;;;13.80;99.90;;;;;;4975599;28;20059;-77
2022/05/30 05:02:03;;;;;;;1.95;0.95;;;13.80;99.90;;;;;;4980486;28;20049;-77
2022/05/30 05:04:39;;;;;;;1.27;1.17;;;13.90;99.90;;;;;;4992009;28;20054;-79
2022/05/30 05:07:08;;;;;;;1.17;0.93;;;13.90;99.90;;;;;;4991888;28;20081;-76
2022/05/30 05:09:52;;;;;;;1.50;1.40;;;14.00;99.90;;;;;;4992525;28;20053;-84
2022/05/30 05:12:38;;;;;;;2.15;0.70;;;14.00;99.90;;;;;;4990734;28;20185;-77
2022/05/30 05:15:35;;;;;;;0.90;0.90;;;14.10;99.90;;;;;;5017003;28;20049;-77
2022/05/30 05:18:27;;;;;;;0.60;0.52;;;14.30;99.90;;;;;;4992827;28;20054;-76
2022/05/30 05:20:55;;;;;;;2.10;0.77;;;14.40;99.90;;;;;;4988770;28;20120;-86
2022/05/30 05:23:23;;;;;;;0.85;0.85;;;14.60;99.90;;;;;;4989994;28;20038;-84
2022/05/30 05:26:01;;;;;;;1.23;1.10;;;14.70;99.90;;;;;;4975491;28;20097;-75
2022/05/30 05:28:37;;;;;;;1.60;1.00;;;14.90;99.90;;;;;;4972477;28;20069;-77
2022/05/30 05:31:08;;;;;;;0.60;0.60;;;15.10;99.90;;;;;;4989175;28;20478;-77
2022/05/30 05:33:36;;;;;;;1.70;0.90;;;15.20;99.90;;;;;;4991457;28;20596;-78
2022/05/30 05:36:05;;;;;;;1.88;1.30;;;15.50;99.90;;;;;;4990913;28;20060;-74
2022/05/30 05:38:32;;;;;;;3.53;1.13;;;16.00;99.90;;;;;;4984692;28;20046;-75
2022/05/30 05:41:18;;;;;;;0.88;0.68;;;16.60;99.90;;;;;;4989949;28;20092;-74
2022/05/30 05:44:05;;;;;;;3.53;1.42;;;17.30;99.90;;;;;;5013934;28;20137;-77
2022/05/30 05:46:33;;;;;;;1.95;1.20;;;17.80;99.90;;;;;;4993654;28;20057;-79
2022/05/30 05:49:02;;;;;;;4.10;1.20;;;18.30;99.90;;;;;;4983307;28;20042;-79
2022/05/30 05:51:30;;;;;;;1.25;1.17;;;18.70;99.90;;;;;;4988082;28;20514;-79
2022/05/30 05:54:05;;;;;;;2.38;0.80;;;19.20;99.90;;;;;;4972946;28;20046;-78
2022/05/30 05:56:36;;;;;;;2.33;1.38;;;19.60;96.00;;;;;;4988322;28;20197;-75
2022/05/30 05:59:09;;;;;;;5.10;1.02;;;19.90;94.30;;;;;;4993295;28;20045;-74
2022/05/30 06:01:36;;;;;;;1.88;0.60;;;20.40;91.70;;;;;;4993330;28;20181;-75
2022/05/30 06:04:08;;;;;;;2.53;0.75;;;20.80;90.80;;;;;;4985241;28;20050;-79
2022/05/30 06:06:59;;;;;;;4.38;0.80;;;21.20;84.20;;;;;;4989791;28;20055;-78
2022/05/30 06:09:31;;;;;;;1.90;0.70;;;21.80;76.70;;;;;;4989457;28;20051;-78
2022/05/30 06:12:09;;;;;;;0.90;0.90;;;22.10;72.40;;;;;;4987971;28;20046;-77
2022/05/30 06:14:39;;;;;;;17.50;1.02;;;22.40;69.20;;;;;;4988395;28;20060;-78
2022/05/30 06:17:07;;;;;;;1.58;0.93;;;22.80;66.90;;;;;;5002053;28;20088;-75
2022/05/30 06:19:35;;;;;;;1.52;0.60;;;23.00;65.20;;;;;;4986046;28;20567;-76
2022/05/30 06:22:03;;;;;;;4.57;0.90;;;23.00;66.00;;;;;;5008786;28;20701;-77
2022/05/30 06:24:34;;;;;;;1.33;1.05;;;23.20;64.70;;;;;;5001971;28;20552;-75
2022/05/30 06:27:20;;;;;;;0.77;0.77;;;23.50;64.20;;;;;;4990074;28;20054;-77
2022/05/30 06:30:07;;;;;;;3.38;0.80;;;24.10;63.40;;;;;;4995253;28;20054;-75
2022/05/30 06:32:36;;;;;;;1.95;0.80;;;24.40;61.00;;;;;;4992986;28;20058;-77
2022/05/30 06:35:08;;;;;;;7.63;1.33;;;24.70;58.20;;;;;;4992726;28;20096;-79
2022/05/30 06:37:39;;;;;;;1.00;0.85;;;24.60;59.10;;;;;;5014561;28;20054;-82
2022/05/30 06:40:10;;;;;;;4.25;1.20;;;24.60;58.20;;;;;;4999781;28;20525;-80
2022/05/30 06:42:48;;;;;;;2.45;1.23;;;25.10;57.40;;;;;;4981840;28;20069;-78
2022/05/30 06:45:48;;;;;;;2.15;1.00;;;25.20;57.10;;;;;;5000561;28;20528;-80
2022/05/30 06:48:34;;;;;;;;;;;25.30;55.50;;;;;;5000492;28;20125;-80
2022/05/30 06:51:20;;;;;;;3.33;1.02;;;25.40;54.40;;;;;;5004520;28;19925;-80
2022/05/30 06:53:50;;;;;;;2.15;0.50;;;25.40;53.90;;;;;;4996265;28;20137;-78
2022/05/30 06:56:21;;;;;;;2.75;0.90;;;25.60;52.90;;;;;;5000277;28;20092;-78
2022/05/30 06:58:52;;;;;;;1.63;0.88;;;25.80;52.10;;;;;;4997986;28;20047;-77
2022/05/30 07:01:24;;;;;;;1.40;0.80;;;25.70;52.90;;;;;;4994123;28;20054;-77
2022/05/30 07:04:10;;;;;;;1.83;0.60;;;25.90;52.30;;;;;;4990466;28;20136;-75
2022/05/30 07:06:57;;;;;;;3.85;0.75;;;26.20;52.10;;;;;;5007614;28;20145;-78
2022/05/30 07:09:39;;;;;;;1.45;1.10;;;26.20;52.90;;;;;;5000085;28;20141;-77
2022/05/30 07:12:33;;;;;;;2.67;0.70;;;26.30;51.80;;;;;;4991075;28;20070;-77
2022/05/30 07:15:03;;;;;;;2.97;0.73;;;26.40;52.50;;;;;;4985589;28;20145;-77
2022/05/30 07:17:31;;;;;;;3.28;1.02;;;26.50;53.00;;;;;;4993581;28;20058;-77
2022/05/30 07:19:59;;;;;;;3.90;0.75;;;26.80;52.40;;;;;;4991889;28;20495;-73
2022/05/30 07:22:38;;;;;;;0.82;0.80;;;27.20;51.00;;;;;;4996233;28;20097;-76
2022/05/30 07:25:24;;;;;;;1.38;0.60;;;27.40;50.10;;;;;;5000257;28;20038;-76
2022/05/30 07:28:12;;;;;;;3.83;1.30;;;27.70;49.90;;;;;;4999062;28;20125;-80
2022/05/30 07:31:05;;;;;;;2.55;0.60;;;28.30;49.00;;;;;;4980065;28;20061;-76
2022/05/30 07:33:51;;;;;;;2.72;1.27;;;28.20;48.90;;;;;;4977313;28;20042;-76
2022/05/30 07:36:55;;;;;;;2.85;0.82;;;28.20;49.00;;;;;;4992057;28;20086;-76
2022/05/30 07:39:31;;;;;;;6.22;0.90;;;28.20;48.70;;;;;;4993577;28;20062;-81
2022/05/30 07:42:14;;;;;;;2.58;1.00;;;28.50;49.30;;;;;;5001132;28;20050;-79
2022/05/30 07:45:09;;;;;;;1.67;0.90;;;28.60;48.50;;;;;;5000648;28;20519;-81
2022/05/30 07:47:58;;;;;;;1.65;0.80;;;28.70;47.80;;;;;;4932479;28;20105;-82
2022/05/30 07:50:46;;;;;;;2.42;1.20;;;28.60;48.30;;;;;;5001604;28;20144;-77
2022/05/30 07:53:26;;;;;;;1.45;0.90;;;28.90;48.70;;;;;;4982789;28;20046;-76
2022/05/30 07:56:06;;;;;;;1.20;1.02;;;29.20;47.90;;;;;;4989630;28;20046;-76
2022/05/30 07:58:34;;;;;;;1.75;0.88;;;29.40;48.60;;;;;;4990352;28;20062;-78
2022/05/30 08:01:07;;;;;;;1.50;1.33;;;29.50;49.30;;;;;;4991935;28;20096;-80
2022/05/30 08:03:38;;;;;;;8.40;1.55;;;29.60;48.60;;;;;;4989983;28;20054;-77
2022/05/30 08:06:43;;;;;;;3.42;1.38;;;29.90;47.40;;;;;;4990728;28;20054;-77
2022/05/30 08:09:10;;;;;;;6.80;0.95;;;30.20;46.90;;;;;;4990674;28;20510;-78
2022/05/30 08:11:48;;;;;;;7.63;1.10;;;30.50;47.00;;;;;;4990913;28;20055;-76
2022/05/30 08:14:36;;;;;;;0.95;0.95;;;30.60;46.10;;;;;;4992631;28;20054;-80
2022/05/30 08:17:05;;;;;;;2.92;0.95;;;30.50;46.70;;;;;;4990236;28;20054;-79
2022/05/30 08:19:35;;;;;;;3.15;1.23;;;30.50;46.10;;;;;;4987878;28;20042;-82
2022/05/30 08:22:04;;;;;;;2.03;0.90;;;30.70;45.60;;;;;;4979831;28;20427;-79
2022/05/30 08:24:36;;;;;;;2.17;1.00;;;30.80;44.50;;;;;;4972399;28;20380;-81
2022/05/30 08:27:07;;;;;;;2.00;1.00;;;30.90;45.10;;;;;;4979352;28;20065;-79
2022/05/30 08:29:43;;;;;;;6.65;1.00;;;31.20;45.70;;;;;;5007763;28;20058;-79
2022/05/30 08:32:12;;;;;;;2.25;1.40;;;31.50;45.40;;;;;;4985389;28;20050;-83
2022/05/30 08:35:07;;;;;;;1.70;1.13;;;31.60;44.80;;;;;;4962691;28;20141;-80
2022/05/30 08:37:37;;;;;;;2.53;2.03;;;31.80;45.70;;;;;;4999929;28;20049;-82
2022/05/30 08:42:55;;;;;;;3.83;1.30;;;32.10;45.30;;;;;;4972586;28;20046;-77
2022/05/30 08:45:34;;;;;;;7.60;1.35;;;32.20;43.80;;;;;;4982953;28;20128;-76
2022/05/30 08:48:26;;;;;;;3.42;1.45;;;32.30;44.20;;;;;;4974176;28;20170;-76
2022/05/30 08:51:08;;;;;;;4.75;1.20;;;32.60;45.10;;;;;;4989593;28;20469;-78
2022/05/30 08:54:01;;;;;;;2.13;1.70;;;32.70;44.90;;;;;;4989315;28;20406;-77
2022/05/30 08:56:34;;;;;;;4.35;1.50;;;32.70;44.80;;;;;;4971719;28;20522;-77
2022/05/30 08:59:31;;;;;;;2.75;1.48;;;32.80;44.60;;;;;;4971522;28;20047;-77
2022/05/30 09:02:05;;;;;;;5.22;1.55;;;32.90;43.60;;;;;;4971546;28;20097;-77
2022/05/30 09:04:39;;;;;;;5.65;1.05;;;33.40;43.70;;;;;;4986908;28;20054;-78
2022/05/30 09:07:16;;;;;;;4.72;2.17;;;32.50;43.80;;;;;;4992412;28;20047;-76
2022/05/30 09:09:54;;;;;;;17.45;2.00;;;31.20;45.40;;;;;;5006803;28;20136;-76
2022/05/30 09:12:39;;;;;;;2.25;1.40;;;31.10;46.50;;;;;;4988859;28;20046;-77
2022/05/30 09:15:32;;;;;;;3.22;1.23;;;31.70;45.50;;;;;;4990583;28;20133;-78
2022/05/30 09:18:06;;;;;;;1.52;1.00;;;32.30;43.10;;;;;;4991943;28;20066;-77
2022/05/30 09:20:35;;;;;;;1.50;1.10;;;32.80;42.80;;;;;;4974635;28;20062;-78
2022/05/30 09:23:08;;;;;;;4.22;1.27;;;32.90;43.00;;;;;;4987904;28;20053;-77
2022/05/30 09:25:56;;;;;;;3.08;1.10;;;33.20;42.90;;;;;;4989887;28;20060;-77
2022/05/30 09:28:41;;;;;;;;;;;33.50;41.80;;;;;;4983604;28;20074;-82
2022/05/30 09:31:39;;;;;;;3.92;1.20;;;33.70;41.00;;;;;;4981465;28;19926;-79
2022/05/30 09:34:40;;;;;;;4.00;1.00;;;34.10;42.00;;;;;;4976035;28;20054;-79
2022/05/30 09:37:30;;;;;;;3.60;1.35;;;34.20;41.00;;;;;;4989344;28;20053;-78
2022/05/30 09:40:12;;;;;;;2.00;1.55;;;34.20;40.70;;;;;;4975423;28;20046;-79
2022/05/30 09:43:04;;;;;;;1.67;1.20;;;34.20;41.20;;;;;;4975630;28;20072;-77
2022/05/30 09:45:34;;;;;;;1.38;0.98;;;34.40;39.50;;;;;;4983668;28;20076;-75
2022/05/30 09:48:11;;;;;;;4.45;1.10;;;34.40;39.10;;;;;;4980458;28;20502;-77
2022/05/30 09:50:46;;;;;;;1.65;1.20;;;33.90;40.30;;;;;;4979886;28;20137;-78
2022/05/30 09:53:34;;;;;;;2.78;1.10;;;34.30;41.10;;;;;;4971390;28;20050;-77
2022/05/30 09:56:03;;;;;;;2.55;1.05;;;34.60;41.60;;;;;;4989665;28;20050;-79
2022/05/30 09:58:46;;;;;;;4.90;2.08;;;34.90;40.00;;;;;;4983605;28;20050;-78
2022/05/30 10:01:34;;;;;;;5.13;1.50;;;34.70;41.00;;;;;;5006186;28;20050;-78
2022/05/30 10:04:18;;;;;;;4.03;1.40;;;35.00;40.60;;;;;;4991305;28;20057;-77
2022/05/30 10:07:16;;;;;;;1.40;1.30;;;35.10;38.70;;;;;;4997661;28;20464;-76
2022/05/30 10:09:58;;;;;;;2.40;1.08;;;34.70;38.60;;;;;;4992812;28;20521;-77
2022/05/30 10:12:37;;;;;;;2.20;1.50;;;34.70;40.00;;;;;;4985154;28;20074;-77
2022/05/30 10:15:26;;;;;;;2.50;1.05;;;35.00;40.20;;;;;;4978243;28;20056;-78
2022/05/30 10:18:24;;;;;;;2.72;1.55;;;35.00;38.80;;;;;;4992163;28;20180;-79
2022/05/30 10:21:20;;;;;;;2.70;1.60;;;34.80;38.50;;;;;;4990491;28;20056;-78
2022/05/30 10:31:34;;;;;;;5.60;1.60;;;34.80;37.90;;;;;;5005147;28;20111;-77
2022/05/30 10:34:34;;;;;;;4.25;1.50;;;35.10;38.10;;;;;;5007952;28;20065;-78
2022/05/30 10:37:15;;;;;;;3.03;1.15;;;35.40;38.40;;;;;;4977133;28;20249;-77
2022/05/30 10:40:06;;;;;;;2.65;1.17;;;35.50;38.60;;;;;;4975142;28;20129;-77
2022/05/30 10:42:40;;;;;;;2.65;1.23;;;35.70;38.90;;;;;;4976147;28;20064;-78
2022/05/30 10:45:14;;;;;;;4.85;1.00;;;35.70;38.30;;;;;;5001047;28;20431;-78
2022/05/30 10:47:45;;;;;;;3.22;1.30;;;35.90;39.00;;;;;;4984505;28;20451;-77
2022/05/30 10:50:19;;;;;;;4.28;1.00;;;36.10;38.60;;;;;;4991197;28;20137;-78
2022/05/30 10:52:55;;;;;;;2.70;1.10;;;36.10;38.60;;;;;;4992080;28;20108;-79
2022/05/30 10:55:37;;;;;;;2.30;1.40;;;36.40;37.90;;;;;;5018326;28;20421;-78
2022/05/30 10:58:22;;;;;;;1.48;1.20;;;36.40;37.70;;;;;;4992844;28;20113;-78
2022/05/30 11:00:58;;;;;;;5.93;1.55;;;35.90;36.50;;;;;;4991891;28;20531;-77
2022/05/30 11:03:33;;;;;;;1.33;1.20;;;34.40;38.70;;;;;;5006214;28;20100;-78
2022/05/30 11:06:08;;;;;;;3.83;1.20;;;33.60;40.70;;;;;;4985505;28;20047;-78
2022/05/30 11:08:51;;;;;;;4.70;1.30;;;34.10;40.30;;;;;;4993146;28;20049;-77
2022/05/30 11:11:26;;;;;;;3.42;1.40;;;35.00;39.20;;;;;;4975560;28;20073;-78
2022/05/30 11:14:22;;;;;;;3.60;1.38;;;35.60;39.30;;;;;;4976303;28;20427;-78
2022/05/30 11:17:36;;;;;;;5.30;1.63;;;34.90;38.60;;;;;;4970104;28;20451;-76
2022/05/30 11:20:12;;;;;;;3.63;1.30;;;32.70;40.40;;;;;;4990858;28;20062;-76
2022/05/30 11:22:48;;;;;;;2.45;1.52;;;31.50;41.60;;;;;;4982021;28;20511;-77
2022/05/30 11:25:22;;;;;;;3.72;1.33;;;30.90;42.50;;;;;;4976294;28;20133;-78
2022/05/30 11:28:04;;;;;;;7.32;1.40;;;31.30;41.80;;;;;;4989897;28;20403;-75
2022/05/30 11:30:42;;;;;;;11.45;1.85;;;30.50;42.00;;;;;;4985465;28;20073;-76
2022/05/30 11:33:49;;;;;;;7.82;1.60;;;30.70;44.40;;;;;;4973153;28;20154;-76
2022/05/30 11:36:46;;;;;;;4.03;1.90;;;32.50;42.40;;;;;;4986329;28;20517;-76
2022/05/30 11:39:35;;;;;;;3.28;1.02;;;34.20;38.80;;;;;;4970581;28;20423;-76
2022/05/30 11:42:15;;;;;;;2.92;1.60;;;35.50;38.20;;;;;;4978162;28;20182;-75
2022/05/30 11:44:50;;;;;;;4.32;1.50;;;36.00;36.80;;;;;;5001193;28;20128;-75
2022/05/30 11:47:38;;;;;;;5.28;1.75;;;36.20;37.20;;;;;;4983486;28;20581;-75
2022/05/30 11:50:31;;;;;;;2.40;1.10;;;36.50;36.50;;;;;;4984217;28;20421;-76
2022/05/30 11:53:38;;;;;;;3.42;1.70;;;37.10;36.50;;;;;;4985453;28;20058;-77
2022/05/30 11:56:14;;;;;;;4.07;1.48;;;37.30;35.20;;;;;;4987575;28;20042;-76
2022/05/30 11:59:13;;;;;;;6.35;2.05;;;36.90;34.70;;;;;;4984766;28;20046;-82
2022/05/30 12:01:44;;;;;;;5.70;1.65;;;36.80;35.30;;;;;;4988309;28;20414;-84
2022/05/30 12:04:56;;;;;;;4.10;1.70;;;37.40;36.60;;;;;;4985664;28;20137;-80
2022/05/30 12:07:58;;;;;;;2.63;1.67;;;37.90;34.70;;;;;;4985213;28;20050;-76
2022/05/30 12:10:37;;;;;;;3.97;1.60;;;38.40;34.40;;;;;;4980180;28;20050;-77
2022/05/30 12:13:20;;;;;;;3.30;1.60;;;38.40;33.40;;;;;;4986710;28;20144;-77
2022/05/30 12:16:15;;;;;;;4.43;1.40;;;38.50;32.60;;;;;;4977720;28;20146;-74
2022/05/30 12:25:47;;;;;;;5.30;1.83;;;38.20;33.10;;;;;;4988671;28;20047;-85
2022/05/30 12:28:57;;;;;;;3.53;1.83;;;37.90;33.90;;;;;;4980259;28;20057;-83
2022/05/30 12:31:40;;;;;;;3.72;1.50;;;37.90;33.40;;;;;;4978030;28;20038;-76
2022/05/30 12:34:10;;;;;;;3.20;1.58;;;37.90;33.70;;;;;;4986303;28;20145;-77
2022/05/30 12:36:45;;;;;;;2.00;1.08;;;37.90;33.50;;;;;;4990753;28;20490;-77
2022/05/30 12:39:37;;;;;;;2.05;1.20;;;37.80;32.50;;;;;;4975704;28;20455;-81
2022/05/30 12:42:09;;;;;;;5.82;1.55;;;37.20;32.80;;;;;;4987277;28;20051;-83
2022/05/30 12:44:51;;;;;;;;;;;36.80;34.00;;;;;;4990053;28;20139;-83
2022/05/30 12:47:32;;;;;;;2.13;1.50;;;37.00;33.30;;;;;;4999054;28;19981;-84
2022/05/30 12:50:43;;;;;;;3.17;1.10;;;37.20;33.00;;;;;;4981128;28;20062;-82
2022/05/30 12:53:11;;;;;;;4.20;1.20;;;37.70;31.90;;;;;;4985408;28;20042;-82
2022/05/30 12:55:41;;;;;;;1.73;1.30;;;38.00;32.10;;;;;;4990995;28;20058;-83
2022/05/30 12:58:14;;;;;;;2.55;1.40;;;38.00;31.30;;;;;;4989403;28;20042;-81
2022/05/30 13:01:09;;;;;;;4.05;1.60;;;37.80;32.00;;;;;;4991534;28;20058;-78
2022/05/30 13:03:44;;;;;;;2.53;1.10;;;37.70;31.70;;;;;;4986358;28;20059;-76
2022/05/30 13:06:22;;;;;;;3.53;1.10;;;37.60;32.00;;;;;;4990085;28;20062;-77
2022/05/30 13:09:25;;;;;;;1.10;1.00;;;37.80;31.70;;;;;;4982673;28;20794;-77
2022/05/30 13:12:21;;;;;;;3.67;1.10;;;38.10;31.40;;;;;;4982182;28;20053;-78
2022/05/30 13:15:14;;;;;;;3.70;1.65;;;37.90;33.10;;;;;;4983655;28;20057;-78
2022/05/30 13:17:53;;;;;;;4.95;1.23;;;38.10;31.30;;;;;;4978575;28;20062;-78
2022/05/30 13:20:25;;;;;;;3.88;1.20;;;38.10;30.70;;;;;;4986026;28;20108;-78
2022/05/30 13:22:56;;;;;;;5.15;1.33;;;38.10;31.30;;;;;;4976745;28;20149;-79
2022/05/30 13:25:35;;;;;;;1.63;1.20;;;38.10;31.70;;;;;;4983656;28;20080;-76
2022/05/30 13:28:10;;;;;;;2.63;1.10;;;38.40;30.60;;;;;;4973154;28;20043;-77
2022/05/30 13:30:41;;;;;;;3.22;1.00;;;38.30;31.20;;;;;;4984956;28;20088;-76
2022/05/30 13:33:17;;;;;;;7.03;1.23;;;38.30;31.80;;;;;;4986370;28;20062;-79
2022/05/30 13:35:45;;;;;;;2.22;1.10;;;38.30;30.50;;;;;;4987465;28;20058;-77
2022/05/30 13:38:15;;;;;;;2.47;1.10;;;38.30;30.50;;;;;;4983740;28;20046;-77
2022/05/30 13:40:46;;;;;;;1.88;1.30;;;38.40;31.10;;;;;;4985599;28;20053;-77
2022/05/30 13:43:22;;;;;;;3.67;1.13;;;38.20;30.50;;;;;;4977955;28;20070;-76
2022/05/30 13:45:51;;;;;;;1.92;1.10;;;37.90;30.70;;;;;;4999767;28;20558;-76
2022/05/30 13:48:19;;;;;;;8.75;1.23;;;37.90;31.30;;;;;;4988197;28;20125;-78
2022/05/30 13:50:51;;;;;;;4.53;1.15;;;37.90;31.70;;;;;;4988980;28;20039;-77
2022/05/30 13:53:22;;;;;;;2.65;1.00;;;37.70;31.40;;;;;;4999995;28;20050;-78
2022/05/30 13:55:55;;;;;;;3.38;1.00;;;37.30;31.80;;;;;;4985390;28;20136;-76
2022/05/30 13:58:25;;;;;;;4.95;1.20;;;37.10;31.80;;;;;;4972276;28;20444;-77
2022/05/30 14:01:01;;;;;;;3.47;1.08;;;37.10;32.00;;;;;;4971291;28;20094;-77
2022/05/30 14:03:31;;;;;;;3.33;1.17;;;36.80;32.30;;;;;;4982944;28;20081;-78
2022/05/30 14:05:58;;;;;;;4.07;1.65;;;36.60;33.00;;;;;;4985394;28;20044;-78